createdAt,value
2018-12-27T00:00:53.369Z,-970.94
2018-12-27T00:01:53.501Z,-966.39
2018-12-27T00:02:54.943Z,-960.92
2018-12-27T00:03:53.665Z,-961.56
2018-12-27T00:04:53.778Z,-965.16
2018-12-27T00:05:53.860Z,-955.16
2018-12-27T00:06:53.998Z,-956.34
2018-12-27T00:07:54.184Z,-962.04
2018-12-27T00:08:54.158Z,-957.94
2018-12-27T00:09:54.277Z,-962.86
2018-12-27T00:10:54.359Z,-956.06
2018-12-27T00:11:54.487Z,-958.94
2018-12-27T00:12:54.622Z,-957.05
2018-12-27T00:13:54.659Z,-962.38
2018-12-27T00:14:54.758Z,-966.54
2018-12-27T00:15:54.893Z,-959.83
2018-12-27T00:16:54.975Z,-964.89
2018-12-27T00:17:55.039Z,-964.08
2018-12-27T00:18:55.144Z,-966.57
2018-12-27T00:19:55.266Z,-965.39
2018-12-27T00:20:55.328Z,-962.06
2018-12-27T00:21:55.470Z,-958.41
2018-12-27T00:22:55.546Z,-958.39
2018-12-27T00:23:55.688Z,-962.30
2018-12-27T00:24:55.768Z,-962.13
2018-12-27T00:25:55.811Z,-964.24
2018-12-27T00:26:55.933Z,-960.68
2018-12-27T00:27:56.030Z,-967.96
2018-12-27T00:28:56.135Z,-964.24
2018-12-27T00:29:56.262Z,-965.39
2018-12-27T00:30:56.346Z,-959.93
2018-12-27T00:31:56.466Z,-968.48
2018-12-27T00:33:02.913Z,-967.08
2018-12-27T00:33:57.655Z,-963.53
2018-12-27T00:34:56.770Z,-966.80
2018-12-27T00:35:56.861Z,-965.62
2018-12-27T00:36:56.966Z,-957.41
2018-12-27T00:37:57.052Z,-962.75
2018-12-27T00:38:57.133Z,-960.39
2018-12-27T00:39:57.276Z,-964.76
2018-12-27T00:40:57.495Z,-960.40
2018-12-27T00:41:57.465Z,-964.76
2018-12-27T00:42:57.529Z,-955.60
2018-12-27T00:43:57.629Z,-964.75
2018-12-27T00:44:57.758Z,-960.68
2018-12-27T00:45:57.849Z,-964.39
2018-12-27T00:46:57.958Z,-956.08
2018-12-27T00:47:58.046Z,-966.26
2018-12-27T00:48:58.206Z,-953.47
2018-12-27T00:49:58.256Z,-961.74
2018-12-27T00:50:58.348Z,-963.12
2018-12-27T00:51:58.456Z,-960.89
2018-12-27T00:52:58.539Z,-959.15
2018-12-27T00:53:58.638Z,-965.10
2018-12-27T00:54:58.739Z,-962.89
2018-12-27T00:55:58.855Z,-956.18
2018-12-27T00:56:58.988Z,-963.59
2018-12-27T00:57:59.054Z,-966.83
2018-12-27T00:58:59.143Z,-968.53
2018-12-27T00:59:59.261Z,-963.43
2018-12-27T01:00:59.325Z,-966.67
2018-12-27T01:01:59.428Z,-970.75
2018-12-27T01:02:59.575Z,-968.79
2018-12-27T01:03:59.661Z,-965.36
2018-12-27T01:04:59.833Z,-965.32
2018-12-27T01:05:59.837Z,-957.92
2018-12-27T01:06:59.927Z,-962.46
2018-12-27T01:08:00.063Z,-958.42
2018-12-27T01:09:00.166Z,-958.54
2018-12-27T01:10:00.292Z,-964.90
2018-12-27T01:11:00.366Z,-961.37
2018-12-27T01:12:00.467Z,-958.11
2018-12-27T01:13:00.614Z,-967.37
2018-12-27T01:14:00.715Z,-961.85
2018-12-27T01:15:00.767Z,-964.84
2018-12-27T01:16:02.308Z,-963.84
2018-12-27T01:17:01.183Z,-963.96
2018-12-27T01:18:01.084Z,-962.58
2018-12-27T01:19:01.142Z,-969.17
2018-12-27T01:20:01.283Z,-956.49
2018-12-27T01:21:01.395Z,-958.21
2018-12-27T01:22:01.615Z,-965.47
2018-12-27T01:23:01.594Z,-955.44
2018-12-27T01:24:01.662Z,-960.22
2018-12-27T01:25:01.791Z,-963.35
2018-12-27T01:26:01.871Z,-967.17
2018-12-27T01:27:01.979Z,-959.15
2018-12-27T01:28:02.096Z,-959.14
2018-12-27T01:29:02.184Z,-963.64
2018-12-27T01:30:02.356Z,-959.63
2018-12-27T01:31:02.380Z,-954.09
2018-12-27T01:32:02.485Z,-958.48
2018-12-27T01:33:02.597Z,-959.02
2018-12-27T01:34:02.676Z,-953.12
2018-12-27T01:35:02.798Z,-964.57
2018-12-27T01:36:02.860Z,-957.47
2018-12-27T01:37:02.994Z,-955.69
2018-12-27T01:38:03.166Z,-963.50
2018-12-27T01:39:03.176Z,-958.65
2018-12-27T01:40:03.286Z,-962.25
2018-12-27T01:41:03.368Z,-960.04
2018-12-27T01:42:03.455Z,-962.16
2018-12-27T01:43:03.570Z,-956.37
2018-12-27T01:44:03.686Z,-964.25
2018-12-27T01:45:03.784Z,-970.26
2018-12-27T01:46:03.921Z,-966.65
2018-12-27T01:47:03.946Z,-953.74
2018-12-27T01:48:04.060Z,-956.44
2018-12-27T01:49:04.180Z,-959.25
2018-12-27T01:50:04.301Z,-961.66
2018-12-27T01:51:04.382Z,-963.91
2018-12-27T01:52:04.482Z,-965.41
2018-12-27T01:53:04.605Z,-963.20
2018-12-27T01:54:04.704Z,-965.15
2018-12-27T01:55:04.866Z,-965.66
2018-12-27T01:56:04.890Z,-959.38
2018-12-27T01:57:04.983Z,-952.82
2018-12-27T01:58:05.103Z,-963.70
2018-12-27T01:59:05.193Z,-964.65
2018-12-27T02:00:05.279Z,-963.12
2018-12-27T02:01:05.386Z,-968.39
2018-12-27T02:02:05.515Z,-960.80
2018-12-27T02:03:05.733Z,-970.25
2018-12-27T02:04:05.702Z,-955.65
2018-12-27T02:05:05.782Z,-953.80
2018-12-27T02:06:05.900Z,-964.37
2018-12-27T02:07:05.989Z,-963.97
2018-12-27T02:08:06.141Z,-961.29
2018-12-27T02:09:06.227Z,-958.19
2018-12-27T02:10:06.309Z,-962.66
2018-12-27T02:11:06.522Z,-963.35
2018-12-27T02:12:06.511Z,-956.42
2018-12-27T02:13:06.628Z,-961.57
2018-12-27T02:14:06.725Z,-963.31
2018-12-27T02:15:06.810Z,-954.54
2018-12-27T02:16:06.926Z,-959.71
2018-12-27T02:17:07.009Z,-957.26
2018-12-27T02:18:07.143Z,-960.61
2018-12-27T02:19:07.316Z,-966.26
2018-12-27T02:20:07.324Z,-959.71
2018-12-27T02:21:07.448Z,-957.88
2018-12-27T02:22:07.528Z,-958.99
2018-12-27T02:23:07.631Z,-956.31
2018-12-27T02:24:07.729Z,-966.48
2018-12-27T02:25:07.827Z,-966.88
2018-12-27T02:26:07.942Z,-962.56
2018-12-27T02:27:08.055Z,-955.75
2018-12-27T02:28:08.139Z,-967.10
2018-12-27T02:29:08.227Z,-958.25
2018-12-27T02:30:08.320Z,-963.99
2018-12-27T02:31:08.460Z,-964.15
2018-12-27T02:32:08.546Z,-961.84
2018-12-27T02:33:08.658Z,-952.89
2018-12-27T02:34:08.758Z,-958.66
2018-12-27T02:35:08.883Z,-963.11
2018-12-27T02:36:09.032Z,-961.31
2018-12-27T02:37:09.035Z,-957.38
2018-12-27T02:38:09.159Z,-959.09
2018-12-27T02:39:09.261Z,-959.57
2018-12-27T02:40:09.321Z,-956.85
2018-12-27T02:41:09.442Z,-958.60
2018-12-27T02:42:09.541Z,-957.56
2018-12-27T02:43:09.669Z,-964.44
2018-12-27T02:44:09.887Z,-950.81
2018-12-27T02:45:09.817Z,-954.59
2018-12-27T02:46:09.934Z,-953.43
2018-12-27T02:47:10.033Z,-964.12
2018-12-27T02:48:10.144Z,-956.02
2018-12-27T02:49:10.244Z,-961.12
2018-12-27T02:50:10.335Z,-961.55
2018-12-27T02:51:10.455Z,-965.54
2018-12-27T02:52:10.599Z,-963.06
2018-12-27T02:53:10.639Z,-896.16
2018-12-27T02:54:10.744Z,-914.17
2018-12-27T02:55:11.045Z,-901.05
2018-12-27T02:56:10.940Z,-909.29
2018-12-27T02:57:11.026Z,-915.30
2018-12-27T02:58:11.128Z,-916.06
2018-12-27T02:59:11.233Z,-919.43
2018-12-27T03:00:11.394Z,-899.72
2018-12-27T03:01:11.439Z,-902.40
2018-12-27T03:02:11.530Z,-913.43
2018-12-27T03:03:11.655Z,-897.92
2018-12-27T03:04:11.727Z,-914.38
2018-12-27T03:05:11.824Z,-902.54
2018-12-27T03:06:11.938Z,-900.52
2018-12-27T03:07:12.023Z,-901.01
2018-12-27T03:08:12.182Z,-911.39
2018-12-27T03:09:12.251Z,-914.32
2018-12-27T03:10:12.343Z,-900.34
2018-12-27T03:11:12.448Z,-896.57
2018-12-27T03:12:12.542Z,-913.70
2018-12-27T03:13:12.638Z,-914.15
2018-12-27T03:14:12.741Z,-898.61
2018-12-27T03:15:12.858Z,-918.78
2018-12-27T03:16:12.955Z,-926.67
2018-12-27T03:17:13.151Z,-921.06
2018-12-27T03:18:13.151Z,-921.60
2018-12-27T03:19:13.263Z,-906.45
2018-12-27T03:20:13.384Z,-910.41
2018-12-27T03:21:13.582Z,-915.91
2018-12-27T03:22:13.552Z,-909.65
2018-12-27T03:23:13.669Z,-904.68
2018-12-27T03:24:13.783Z,-897.44
2018-12-27T03:25:14.011Z,-907.08
2018-12-27T03:26:13.979Z,-916.21
2018-12-27T03:27:14.086Z,-910.56
2018-12-27T03:28:14.195Z,-897.34
2018-12-27T03:29:14.312Z,-909.00
2018-12-27T03:30:14.413Z,-900.12
2018-12-27T03:31:14.518Z,-890.78
2018-12-27T03:32:14.601Z,-917.00
2018-12-27T03:33:14.736Z,-908.91
2018-12-27T03:34:14.801Z,-902.85
2018-12-27T03:35:14.899Z,-892.72
2018-12-27T03:36:15.002Z,-909.83
2018-12-27T03:37:15.088Z,-897.20
2018-12-27T03:38:15.185Z,-892.31
2018-12-27T03:39:15.286Z,-893.74
2018-12-27T03:40:15.404Z,-912.88
2018-12-27T03:41:15.580Z,-907.58
2018-12-27T03:42:15.570Z,-899.22
2018-12-27T03:43:15.675Z,-898.84
2018-12-27T03:44:15.789Z,-895.54
2018-12-27T03:45:15.871Z,-906.22
2018-12-27T03:46:15.984Z,-902.86
2018-12-27T03:47:16.074Z,-913.75
2018-12-27T03:48:16.179Z,-903.49
2018-12-27T03:49:16.327Z,-896.29
2018-12-27T03:50:16.410Z,-915.35
2018-12-27T03:51:16.491Z,-896.31
2018-12-27T03:52:16.600Z,-910.41
2018-12-27T03:53:16.698Z,-901.59
2018-12-27T03:54:16.817Z,-909.98
2018-12-27T03:55:16.916Z,-902.00
2018-12-27T03:56:17.018Z,-908.55
2018-12-27T03:57:17.105Z,-911.96
2018-12-27T03:58:17.304Z,-897.30
2018-12-27T03:59:17.320Z,-897.97
2018-12-27T04:00:17.507Z,-909.19
2018-12-27T04:01:17.517Z,-901.31
2018-12-27T04:02:17.583Z,-909.26
2018-12-27T04:03:17.699Z,-906.56
2018-12-27T04:04:17.814Z,-893.93
2018-12-27T04:05:17.907Z,-902.92
2018-12-27T04:06:18.165Z,-909.01
2018-12-27T04:07:18.087Z,-900.60
2018-12-27T04:08:18.205Z,-907.35
2018-12-27T04:09:18.321Z,-909.94
2018-12-27T04:10:18.408Z,-897.02
2018-12-27T04:11:18.621Z,-906.49
2018-12-27T04:12:18.601Z,-895.88
2018-12-27T04:13:18.797Z,-891.04
2018-12-27T04:14:18.869Z,-897.39
2018-12-27T04:15:18.930Z,-895.46
2018-12-27T04:16:19.012Z,-913.94
2018-12-27T04:17:19.116Z,-900.43
2018-12-27T04:18:19.215Z,-911.76
2018-12-27T04:19:19.312Z,-897.96
2018-12-27T04:20:19.430Z,-904.10
2018-12-27T04:21:19.532Z,-888.69
2018-12-27T04:22:19.750Z,-895.02
2018-12-27T04:23:19.731Z,-911.20
2018-12-27T04:24:19.855Z,-908.36
2018-12-27T04:25:19.936Z,-895.67
2018-12-27T04:26:20.022Z,-893.82
2018-12-27T04:27:20.164Z,-901.62
2018-12-27T04:28:20.264Z,-906.50
2018-12-27T04:29:20.379Z,-901.37
2018-12-27T04:30:20.518Z,-914.41
2018-12-27T04:31:20.597Z,-895.03
2018-12-27T04:32:20.918Z,-911.02
2018-12-27T04:33:20.761Z,-898.53
2018-12-27T04:34:20.874Z,-903.16
2018-12-27T04:35:20.987Z,-921.67
2018-12-27T04:36:21.062Z,-919.49
2018-12-27T04:37:21.180Z,-907.65
2018-12-27T04:38:21.252Z,-895.94
2018-12-27T04:39:21.473Z,-907.34
2018-12-27T04:40:21.475Z,-896.60
2018-12-27T04:41:21.575Z,-919.39
2018-12-27T04:42:21.662Z,-908.28
2018-12-27T04:43:21.739Z,-905.00
2018-12-27T04:44:21.870Z,-902.96
2018-12-27T04:45:21.954Z,-902.64
2018-12-27T04:46:22.076Z,-913.21
2018-12-27T04:47:22.296Z,-914.01
2018-12-27T04:48:22.232Z,-921.74
2018-12-27T04:49:22.364Z,-924.96
2018-12-27T04:50:22.449Z,-917.65
2018-12-27T04:51:22.569Z,-899.13
2018-12-27T04:52:22.669Z,-915.66
2018-12-27T04:53:22.751Z,-906.54
2018-12-27T04:54:22.845Z,-904.64
2018-12-27T04:55:23.004Z,-922.15
2018-12-27T04:56:23.061Z,-925.36
2018-12-27T04:57:23.184Z,-927.56
2018-12-27T04:58:23.257Z,-907.71
2018-12-27T04:59:23.375Z,-919.01
2018-12-27T05:00:23.443Z,-921.41
2018-12-27T05:01:23.544Z,-910.44
2018-12-27T05:02:23.691Z,-917.41
2018-12-27T05:03:23.848Z,-901.51
2018-12-27T05:04:23.856Z,-915.25
2018-12-27T05:05:23.945Z,-897.09
2018-12-27T05:06:24.047Z,-912.91
2018-12-27T05:07:24.156Z,-912.22
2018-12-27T05:08:24.258Z,-899.53
2018-12-27T05:09:24.365Z,-900.26
2018-12-27T05:10:24.457Z,-896.41
2018-12-27T05:11:24.585Z,-907.34
2018-12-27T05:12:24.743Z,-907.94
2018-12-27T05:13:24.756Z,-916.04
2018-12-27T05:14:24.871Z,-905.23
2018-12-27T05:15:24.946Z,-904.17
2018-12-27T05:16:25.060Z,-906.97
2018-12-27T05:17:25.189Z,-903.87
2018-12-27T05:18:25.251Z,-901.49
2018-12-27T05:19:25.389Z,-918.05
2018-12-27T05:20:25.610Z,-912.60
2018-12-27T05:21:25.590Z,-921.34
2018-12-27T05:22:25.733Z,-925.89
2018-12-27T05:23:25.761Z,-914.95
2018-12-27T05:24:25.877Z,-922.97
2018-12-27T05:25:25.983Z,-922.36
2018-12-27T05:26:26.079Z,-904.38
2018-12-27T05:27:26.216Z,-912.55
2018-12-27T05:28:26.348Z,-918.93
2018-12-27T05:29:26.383Z,-903.76
2018-12-27T05:30:26.510Z,-920.18
2018-12-27T05:31:26.609Z,-915.83
2018-12-27T05:32:26.729Z,-927.05
2018-12-27T05:33:26.810Z,-906.38
2018-12-27T05:34:26.911Z,-903.36
2018-12-27T05:35:27.012Z,-931.70
2018-12-27T05:36:27.229Z,-922.91
2018-12-27T05:37:27.220Z,-908.45
2018-12-27T05:38:27.320Z,-917.42
2018-12-27T05:39:27.490Z,-907.27
2018-12-27T05:40:27.538Z,-913.30
2018-12-27T05:41:27.616Z,-918.07
2018-12-27T05:42:27.737Z,-903.49
2018-12-27T05:43:27.827Z,-908.03
2018-12-27T05:44:27.944Z,-931.13
2018-12-27T05:45:28.027Z,-907.74
2018-12-27T05:46:28.123Z,-910.82
2018-12-27T05:47:28.224Z,-911.86
2018-12-27T05:48:28.342Z,-914.26
2018-12-27T05:49:28.423Z,-969.33
2018-12-27T05:50:28.543Z,-974.11
2018-12-27T05:51:28.628Z,-965.03
2018-12-27T05:52:28.774Z,-970.60
2018-12-27T05:53:28.935Z,-967.87
2018-12-27T05:54:28.952Z,-965.58
2018-12-27T05:55:34.189Z,-968.86
2018-12-27T05:56:30.174Z,-974.72
2018-12-27T05:57:29.283Z,-983.86
2018-12-27T05:58:29.344Z,-966.48
2018-12-27T05:59:29.472Z,-911.79
2018-12-27T06:00:29.599Z,-916.54
2018-12-27T06:01:29.836Z,-915.99
2018-12-27T06:02:29.790Z,-918.39
2018-12-27T06:03:29.857Z,-917.26
2018-12-27T06:04:33.642Z,-905.61
2018-12-27T06:05:30.107Z,-915.44
2018-12-27T06:06:30.199Z,-924.63
2018-12-27T06:07:30.293Z,-901.43
2018-12-27T06:08:30.627Z,-926.29
2018-12-27T06:09:30.568Z,-929.26
2018-12-27T06:10:30.587Z,-927.26
2018-12-27T06:11:30.700Z,-914.65
2018-12-27T06:12:30.807Z,-894.74
2018-12-27T06:13:30.884Z,-907.37
2018-12-27T06:14:31.007Z,-898.85
2018-12-27T06:15:31.113Z,-908.16
2018-12-27T06:16:31.194Z,-920.44
2018-12-27T06:17:31.422Z,-919.17
2018-12-27T06:18:31.374Z,-898.99
2018-12-27T06:19:31.483Z,-913.71
2018-12-27T06:20:31.602Z,-900.53
2018-12-27T06:21:31.691Z,-918.95
2018-12-27T06:22:31.780Z,-904.21
2018-12-27T06:23:31.879Z,-919.94
2018-12-27T06:24:32.013Z,-910.11
2018-12-27T06:25:32.386Z,-920.84
2018-12-27T06:26:32.216Z,-920.31
2018-12-27T06:27:32.299Z,-899.39
2018-12-27T06:28:32.398Z,-914.36
2018-12-27T06:29:32.527Z,-906.92
2018-12-27T06:30:32.615Z,-926.31
2018-12-27T06:31:32.714Z,-907.58
2018-12-27T06:32:32.832Z,-884.65
2018-12-27T06:33:32.922Z,-884.92
2018-12-27T06:34:33.125Z,-885.43
2018-12-27T06:35:33.126Z,-904.41
2018-12-27T06:36:33.205Z,-908.75
2018-12-27T06:37:33.342Z,-919.50
2018-12-27T06:38:33.409Z,-901.97
2018-12-27T06:39:33.492Z,-920.09
2018-12-27T06:40:33.625Z,-906.56
2018-12-27T06:41:33.704Z,-906.25
2018-12-27T06:42:33.944Z,-925.11
2018-12-27T06:43:33.893Z,-915.63
2018-12-27T06:44:33.996Z,-922.59
2018-12-27T06:45:34.135Z,-915.54
2018-12-27T06:46:34.215Z,-916.48
2018-12-27T06:47:34.331Z,-929.67
2018-12-27T06:48:34.427Z,-927.08
2018-12-27T06:49:34.537Z,-903.57
2018-12-27T06:50:34.701Z,-899.62
2018-12-27T06:51:34.717Z,-910.78
2018-12-27T06:52:34.837Z,-919.21
2018-12-27T06:53:34.940Z,-899.65
2018-12-27T06:54:35.020Z,-930.89
2018-12-27T06:55:35.137Z,-921.68
2018-12-27T06:56:35.197Z,-925.52
2018-12-27T06:57:35.337Z,-923.74
2018-12-27T06:58:37.890Z,-927.07
2018-12-27T06:59:35.499Z,-927.59
2018-12-27T07:00:35.633Z,-928.94
2018-12-27T07:01:35.701Z,-919.50
2018-12-27T07:02:35.801Z,-919.99
2018-12-27T07:03:35.922Z,-905.10
2018-12-27T07:04:36.011Z,-912.05
2018-12-27T07:05:36.130Z,-909.54
2018-12-27T07:06:36.261Z,-899.45
2018-12-27T07:07:36.381Z,-887.99
2018-12-27T07:08:36.411Z,-909.32
2018-12-27T07:09:36.515Z,-916.86
2018-12-27T07:10:36.626Z,-907.61
2018-12-27T07:11:36.711Z,-902.97
2018-12-27T07:12:36.828Z,-912.65
2018-12-27T07:13:36.929Z,-892.76
2018-12-27T07:14:37.016Z,-905.92
2018-12-27T07:15:37.203Z,-913.97
2018-12-27T07:16:37.216Z,-911.76
2018-12-27T07:17:37.330Z,-935.51
2018-12-27T07:18:37.431Z,-931.10
2018-12-27T07:19:37.574Z,-926.68
2018-12-27T07:20:37.625Z,-921.03
2018-12-27T07:21:37.718Z,-912.55
2018-12-27T07:22:37.825Z,-913.16
2018-12-27T07:23:38.051Z,-920.96
2018-12-27T07:24:37.988Z,-931.59
2018-12-27T07:25:38.124Z,-911.52
2018-12-27T07:26:38.206Z,-917.23
2018-12-27T07:27:38.313Z,-930.82
2018-12-27T07:28:38.423Z,-927.65
2018-12-27T07:29:38.497Z,-910.13
2018-12-27T07:30:38.639Z,-926.76
2018-12-27T07:31:38.746Z,-927.50
2018-12-27T07:32:38.804Z,-910.40
2018-12-27T07:33:38.914Z,-922.45
2018-12-27T07:34:38.995Z,-892.01
2018-12-27T07:35:39.111Z,-919.22
2018-12-27T07:36:39.175Z,-919.20
2018-12-27T07:37:39.284Z,-905.80
2018-12-27T07:38:39.410Z,-909.32
2018-12-27T07:39:39.530Z,-897.98
2018-12-27T07:40:39.588Z,-918.99
2018-12-27T07:41:39.685Z,-911.14
2018-12-27T07:42:39.764Z,-918.91
2018-12-27T07:43:39.888Z,-920.44
2018-12-27T07:44:39.986Z,-900.81
2018-12-27T07:45:40.087Z,-906.22
2018-12-27T07:46:40.196Z,-908.77
2018-12-27T07:47:40.339Z,-894.40
2018-12-27T07:48:40.457Z,-900.92
2018-12-27T07:49:40.498Z,-898.08
2018-12-27T07:50:40.609Z,-899.63
2018-12-27T07:51:40.733Z,-920.87
2018-12-27T07:52:40.821Z,-891.36
2018-12-27T07:53:40.997Z,-891.72
2018-12-27T07:54:41.020Z,-897.16
2018-12-27T07:55:41.108Z,-907.44
2018-12-27T07:56:41.372Z,-892.69
2018-12-27T07:57:41.360Z,-894.64
2018-12-27T07:58:41.450Z,-891.00
2018-12-27T07:59:41.516Z,-894.27
2018-12-27T08:00:41.612Z,-909.28
2018-12-27T08:01:41.744Z,-892.88
2018-12-27T08:02:42.616Z,-906.21
2018-12-27T08:03:41.939Z,-900.27
2018-12-27T08:04:42.107Z,-889.31
2018-12-27T08:05:42.098Z,-884.86
2018-12-27T08:06:42.250Z,-889.61
2018-12-27T08:07:42.308Z,-913.30
2018-12-27T08:08:42.445Z,-892.22
2018-12-27T08:09:42.516Z,-907.74
2018-12-27T08:10:42.620Z,-895.56
2018-12-27T08:11:42.727Z,-898.01
2018-12-27T08:12:42.867Z,-895.50
2018-12-27T08:13:42.932Z,-886.31
2018-12-27T08:14:43.022Z,-900.41
2018-12-27T08:15:43.120Z,-894.47
2018-12-27T08:16:48.346Z,-916.81
2018-12-27T08:17:43.318Z,-915.62
2018-12-27T08:18:43.420Z,-914.79
2018-12-27T08:19:43.522Z,-900.96
2018-12-27T08:20:43.695Z,-898.06
2018-12-27T08:21:43.737Z,-909.54
2018-12-27T08:22:43.827Z,-903.84
2018-12-27T08:23:43.941Z,-892.25
2018-12-27T08:24:44.010Z,-885.51
2018-12-27T08:25:44.119Z,-904.90
2018-12-27T08:26:44.284Z,-887.18
2018-12-27T08:27:44.339Z,-908.64
2018-12-27T08:28:44.477Z,-905.62
2018-12-27T08:29:44.567Z,-901.94
2018-12-27T08:30:44.641Z,-884.49
2018-12-27T08:31:44.807Z,-894.65
2018-12-27T08:32:44.854Z,-902.84
2018-12-27T08:33:44.972Z,-905.94
2018-12-27T08:34:45.053Z,-901.04
2018-12-27T08:35:45.154Z,-891.48
2018-12-27T08:36:45.274Z,-902.30
2018-12-27T08:37:45.472Z,-903.90
2018-12-27T08:38:45.488Z,-886.74
2018-12-27T08:39:45.551Z,-890.64
2018-12-27T08:40:45.630Z,-890.09
2018-12-27T08:41:45.746Z,-902.55
2018-12-27T08:42:45.857Z,-886.22
2018-12-27T08:43:45.975Z,-885.41
2018-12-27T08:44:46.055Z,-901.31
2018-12-27T08:45:46.241Z,-898.16
2018-12-27T08:46:46.242Z,-903.15
2018-12-27T08:47:46.358Z,-885.21
2018-12-27T08:48:46.477Z,-886.12
2018-12-27T08:49:46.559Z,-909.41
2018-12-27T08:50:46.656Z,-890.04
2018-12-27T08:51:46.780Z,-910.30
2018-12-27T08:52:46.867Z,-892.88
2018-12-27T08:53:46.991Z,-906.62
2018-12-27T08:54:47.046Z,-902.58
2018-12-27T08:55:47.149Z,-898.05
2018-12-27T08:56:47.263Z,-909.59
2018-12-27T08:57:47.610Z,-885.21
2018-12-27T08:58:47.460Z,-890.41
2018-12-27T08:59:47.528Z,-905.06
2018-12-27T09:00:47.638Z,-902.07
2018-12-27T09:01:47.807Z,-908.92
2018-12-27T09:02:47.837Z,-881.16
2018-12-27T09:03:47.939Z,-890.08
2018-12-27T09:04:48.046Z,-900.85
2018-12-27T09:05:48.124Z,-897.69
2018-12-27T09:06:48.256Z,-910.53
2018-12-27T09:07:48.598Z,-894.80
2018-12-27T09:08:48.456Z,-895.14
2018-12-27T09:09:48.592Z,-892.29
2018-12-27T09:10:48.725Z,-884.98
2018-12-27T09:11:48.765Z,-902.42
2018-12-27T09:12:48.857Z,-890.26
2018-12-27T09:13:48.965Z,-888.24
2018-12-27T09:14:49.072Z,-895.84
2018-12-27T09:15:49.170Z,-896.16
2018-12-27T09:16:49.272Z,-902.76
2018-12-27T09:17:49.375Z,-895.80
2018-12-27T09:18:49.629Z,-887.69
2018-12-27T09:19:49.605Z,-902.30
2018-12-27T09:20:49.682Z,-902.89
2018-12-27T09:21:49.789Z,-899.59
2018-12-27T09:22:49.870Z,-897.25
2018-12-27T09:23:50.012Z,-893.04
2018-12-27T09:24:50.326Z,-885.48
2018-12-27T09:25:50.191Z,-886.82
2018-12-27T09:26:50.393Z,-898.26
2018-12-27T09:27:50.360Z,-894.34
2018-12-27T09:28:50.489Z,-893.67
2018-12-27T09:29:50.614Z,-883.97
2018-12-27T09:30:50.695Z,-896.81
2018-12-27T09:31:50.840Z,-882.44
2018-12-27T09:32:50.896Z,-882.80
2018-12-27T09:33:51.004Z,-897.35
2018-12-27T09:34:51.147Z,-898.32
2018-12-27T09:35:51.177Z,-894.19
2018-12-27T09:36:51.318Z,-880.31
2018-12-27T09:37:51.383Z,-886.23
2018-12-27T09:38:51.500Z,-887.14
2018-12-27T09:39:51.595Z,-904.14
2018-12-27T09:40:51.660Z,-893.31
2018-12-27T09:41:51.793Z,-902.71
2018-12-27T09:42:51.950Z,-901.20
2018-12-27T09:43:52.001Z,-908.37
2018-12-27T09:44:52.117Z,-889.48
2018-12-27T09:45:52.198Z,-889.61
2018-12-27T09:46:52.293Z,-908.29
2018-12-27T09:47:52.399Z,-908.45
2018-12-27T09:48:52.508Z,-889.48
2018-12-27T09:49:52.618Z,-894.06
2018-12-27T09:50:52.712Z,-891.22
2018-12-27T09:51:52.919Z,-886.28
2018-12-27T09:52:52.897Z,-884.26
2018-12-27T09:53:53.033Z,-883.29
2018-12-27T09:54:53.115Z,-895.57
2018-12-27T09:55:53.199Z,-884.04
2018-12-27T09:56:53.315Z,-898.98
2018-12-27T09:57:53.381Z,-884.58
2018-12-27T09:58:53.508Z,-897.11
2018-12-27T09:59:53.728Z,-903.89
2018-12-27T10:00:53.697Z,-894.24
2018-12-27T10:01:53.815Z,-890.63
2018-12-27T10:02:53.879Z,-898.22
2018-12-27T10:03:54.025Z,-905.87
2018-12-27T10:04:54.151Z,-890.72
2018-12-27T10:05:54.228Z,-889.57
2018-12-27T10:06:54.343Z,-886.79
2018-12-27T10:07:57.417Z,-889.45
2018-12-27T10:08:54.495Z,-897.99
2018-12-27T10:09:54.650Z,-890.21
2018-12-27T10:10:54.714Z,-883.52
2018-12-27T10:11:54.814Z,-880.76
2018-12-27T10:12:54.913Z,-892.71
2018-12-27T10:13:55.017Z,-900.52
2018-12-27T10:14:55.155Z,-904.61
2018-12-27T10:15:55.276Z,-912.80
2018-12-27T10:16:55.296Z,-892.23
2018-12-27T10:17:55.420Z,-913.26
2018-12-27T10:18:55.525Z,-895.43
2018-12-27T10:19:55.648Z,-889.39
2018-12-27T10:20:55.698Z,-896.25
2018-12-27T10:21:55.809Z,-899.90
2018-12-27T10:22:55.944Z,-890.18
2018-12-27T10:23:56.047Z,-903.99
2018-12-27T10:24:56.219Z,-909.00
2018-12-27T10:25:56.222Z,-898.59
2018-12-27T10:26:56.307Z,-897.65
2018-12-27T10:27:56.446Z,-896.17
2018-12-27T10:28:56.545Z,-903.66
2018-12-27T10:29:56.682Z,-904.77
2018-12-27T10:30:59.746Z,-901.08
2018-12-27T10:31:56.859Z,-920.68
2018-12-27T10:32:57.057Z,-906.07
2018-12-27T10:33:57.063Z,-885.78
2018-12-27T10:34:57.168Z,-877.39
2018-12-27T10:35:57.284Z,-900.25
2018-12-27T10:36:57.346Z,-893.74
2018-12-27T10:37:57.464Z,-893.00
2018-12-27T10:38:57.521Z,-883.58
2018-12-27T10:39:57.670Z,-891.17
2018-12-27T10:40:57.857Z,-900.48
2018-12-27T10:41:57.831Z,-901.16
2018-12-27T10:42:57.937Z,-903.27
2018-12-27T10:43:58.021Z,-893.95
2018-12-27T10:44:58.164Z,-901.12
2018-12-27T10:45:58.238Z,-915.81
2018-12-27T10:46:58.340Z,-898.80
2018-12-27T10:47:58.447Z,-904.40
2018-12-27T10:48:58.586Z,-885.06
2018-12-27T10:49:58.671Z,-884.50
2018-12-27T10:50:58.726Z,-879.82
2018-12-27T10:51:58.827Z,-891.75
2018-12-27T10:52:58.943Z,-900.94
2018-12-27T10:53:59.028Z,-895.28
2018-12-27T10:54:59.162Z,-889.22
2018-12-27T10:55:59.212Z,-891.13
2018-12-27T10:56:59.406Z,-944.22
2018-12-27T10:57:59.426Z,-952.23
2018-12-27T10:58:59.511Z,-955.52
2018-12-27T10:59:59.648Z,-951.84
2018-12-27T11:00:59.718Z,-894.14
2018-12-27T11:01:59.806Z,-882.10
2018-12-27T11:03:00.164Z,-888.95
2018-12-27T11:04:00.023Z,-896.66
2018-12-27T11:05:00.196Z,-889.86
2018-12-27T11:06:00.302Z,-887.15
2018-12-27T11:07:00.309Z,-883.10
2018-12-27T11:08:00.428Z,-904.85
2018-12-27T11:09:00.528Z,-906.75
2018-12-27T11:10:00.669Z,-895.98
2018-12-27T11:11:00.728Z,-898.93
2018-12-27T11:12:00.828Z,-887.40
2018-12-27T11:13:00.955Z,-879.69
2018-12-27T11:14:01.144Z,-886.98
2018-12-27T11:15:01.160Z,-920.46
2018-12-27T11:16:01.226Z,-894.56
2018-12-27T11:17:01.326Z,-895.11
2018-12-27T11:18:01.437Z,-905.97
2018-12-27T11:19:01.504Z,-904.63
2018-12-27T11:20:01.871Z,-896.33
2018-12-27T11:21:01.764Z,-897.46
2018-12-27T11:22:01.986Z,-910.93
2018-12-27T11:23:01.971Z,-889.82
2018-12-27T11:24:02.038Z,-890.21
2018-12-27T11:25:02.186Z,-896.33
2018-12-27T11:26:02.322Z,-894.67
2018-12-27T11:27:02.387Z,-906.97
2018-12-27T11:28:02.505Z,-907.87
2018-12-27T11:29:02.589Z,-896.13
2018-12-27T11:30:02.724Z,-910.55
2018-12-27T11:31:02.805Z,-884.18
2018-12-27T11:32:02.897Z,-903.63
2018-12-27T11:33:03.012Z,-890.05
2018-12-27T11:34:03.106Z,-882.39
2018-12-27T11:35:03.196Z,-891.97
2018-12-27T11:36:03.328Z,-897.89
2018-12-27T11:37:03.682Z,-898.10
2018-12-27T11:38:03.552Z,-876.70
2018-12-27T11:39:03.590Z,-890.07
2018-12-27T11:40:03.699Z,-903.85
2018-12-27T11:41:03.821Z,-889.97
2018-12-27T11:42:03.916Z,-906.05
2018-12-27T11:43:04.125Z,-894.37
2018-12-27T11:44:04.112Z,-893.33
2018-12-27T11:45:04.210Z,-893.49
2018-12-27T11:46:04.382Z,-891.53
2018-12-27T11:47:04.472Z,-886.54
2018-12-27T11:48:04.639Z,-890.76
2018-12-27T11:49:04.609Z,-906.45
2018-12-27T11:50:04.716Z,-886.30
2018-12-27T11:51:04.878Z,-907.93
2018-12-27T11:52:04.925Z,-901.75
2018-12-27T11:53:05.035Z,-902.93
2018-12-27T11:54:05.111Z,-884.58
2018-12-27T11:55:05.354Z,-898.37
2018-12-27T11:56:05.354Z,-896.08
2018-12-27T11:57:05.435Z,-904.18
2018-12-27T11:58:05.564Z,-908.52
2018-12-27T11:59:05.615Z,-881.44
2018-12-27T12:00:05.737Z,-896.85
2018-12-27T12:01:05.882Z,-885.83
2018-12-27T12:02:05.963Z,-882.95
2018-12-27T12:03:06.195Z,-906.90
2018-12-27T12:04:06.146Z,-892.07
2018-12-27T12:05:06.228Z,-893.92
2018-12-27T12:06:06.365Z,-901.07
2018-12-27T12:07:06.449Z,-891.29